This is the latest recevied weather packets stored in our database for station/object KC3LDA. If no packets are shown the sender has not sent any weather packets the latest 10 day(s).
| Time | Temp. | Humidity | Pressure | Rain* | Wind** | Luminosity | Snow |
|---|---|---|---|---|---|---|---|
| 1777777010 | 11.11° C | 60% | 1007.4 hPa | 0 mm | - | 0 W/m² | - |
| 1777776708 | 11.11° C | 60% | 1007.8 hPa | 0 mm | - | 0 W/m² | - |
| 1777776405 | 11.11° C | 61% | 1007.3 hPa | 0 mm | - | 0 W/m² | - |
| 1777776102 | 11.11° C | 64% | 1007.3 hPa | 0 mm | - | 0 W/m² | - |
| 1777775799 | 11.11° C | 67% | 1007.4 hPa | 0 mm | - | 0 W/m² | - |
| 1777775496 | 10.56° C | 69% | 1007.5 hPa | 0 mm | - | 0 W/m² | - |
| 1777775192 | 10.56° C | 75% | 1007.8 hPa | 0 mm | - | 0 W/m² | - |
| 1777774891 | 10° C | 82% | 1007.4 hPa | 0 mm | - | 0 W/m² | - |
| 1777774589 | 9.44° C | 88% | 1007.8 hPa | 0 mm | - | 0 W/m² | - |
| 1777774285 | 9.44° C | 89% | 1007.8 hPa | 0 mm | - | 0 W/m² | - |
| 1777773982 | 9.44° C | 89% | 1007.6 hPa | 0 mm | - | 0 W/m² | - |
| 1777773680 | 9.44° C | 90% | 1007.7 hPa | 0 mm | - | 0 W/m² | - |
| 1777773376 | 9.44° C | 90% | 1007.9 hPa | 0 mm | - | 0 W/m² | - |
| 1777770952 | 10° C | 91% | 1007.9 hPa | 0 mm | - | 0 W/m² | - |
| 1777769438 | 10° C | 89% | 1007.4 hPa | 0 mm | - | 0 W/m² | - |
| 1777768528 | 10.56° C | 88% | 1007.3 hPa | 0 mm | - | 0 W/m² | - |
| 1777767013 | 11.11° C | 86% | 1007.3 hPa | 0 mm | - | 0 W/m² | - |
| 1777764896 | 11.67° C | 82% | 1007 hPa | 0 mm | - | 16 W/m² | - |
| 1777764289 | 12.22° C | 82% | 1007.1 hPa | 0 mm | - | 26 W/m² | - |
| 1777761563 | 13.33° C | 78% | 1006.8 hPa | 0 mm | - | 73 W/m² | - |
| 1777761261 | 13.33° C | 78% | 1006.9 hPa | 0 mm | - | 70 W/m² | - |
| 1777760959 | 13.33° C | 78% | 1006.8 hPa | 0 mm | - | 94 W/m² | - |
| 1777760356 | 13.89° C | 73% | 1006.9 hPa | 0 mm | - | 93 W/m² | - |
| 1777760053 | 13.89° C | 73% | 1006.7 hPa | 0 mm | - | 73 W/m² | - |
| 1777759751 | 13.89° C | 72% | 1006.8 hPa | 0 mm | - | 78 W/m² | - |
* Rain latest hour (hover to see other rain measurements)
** Current wind speed in m/s (hover to see current wind gust speed)